Bynum, Alabama
Current Conditions -  °F | °C
As of 2:55 PM on Thursday 23 Oct 2014 (Local Time) from KASN Reporting Station
Clear Clear  
Wind Chill: 71°   Ceiling: Unl
Heat Index: 71°   Visibility: 10mi
Dew Point: 38°   Wind: 5mph
Humidity: 31%   Direction: 340°NNW
Pressure: 30.07"   Gusts: NA
Location:  33.61°N, 85.96°W
Report Text: KASN 231955Z AUTO 34004KT 10SM CLR 22/04 A3007 RMK AO2 T02150035
Loading
Personal Weather Stations






























Interactive Weather Map
Tropical Storm Tracking
New forecast layout! Learn more

10-Day Weather Forecast

Advertisements
Track Severe Weather on mobile